Time;durP1;ratioP1;P1;durP2;ratioP2;P2;SDS_P1;SDS_P2;PMS_P1;PMS_P2;Temp;Humidity;BMP_temperature;BMP_pressure;BME280_temperature;BME280_humidity;BME280_pressure;Samples;Min_cycle;Max_cycle;Signal;HPM_P1;HPM_P2
2023/05/28 00:01:40;;;;;;;20.33;7.22;;;;;;;;;;4820765;29;20966;-82
2023/05/28 00:11:01;;;;;;;25.83;7.72;;;;;;;;;;4782452;29;20050;-82
2023/05/28 00:13:52;;;;;;;16.88;6.22;;;;;;;;;;4857394;29;20705;-84
2023/05/28 00:16:20;;;;;;;16.80;6.60;;;;;;;;;;4839156;29;20504;-81
2023/05/28 00:19:52;;;;;;;14.63;6.38;;;;;;;;;;4787251;29;20135;-81
2023/05/28 00:28:57;;;;;;;19.90;7.57;;;;;;;;;;4867523;29;20087;-81
2023/05/28 00:38:42;;;;;;;;;;;;;;;;;;;;;
2023/05/28 00:44:50;;;;;;;17.88;7.13;;;;;;;;;;4813512;29;20048;-82
2023/05/28 00:47:42;;;;;;;18.55;8.23;;;;;;;;;;4880029;29;20085;-82
2023/05/28 00:51:31;;;;;;;14.23;7.72;;;;;;;;;;4856674;29;20144;-81
2023/05/28 00:54:30;;;;;;;14.73;7.60;;;;;;;;;;4835682;29;20154;-81
2023/05/28 00:57:08;;;;;;;16.50;8.23;;;;;;;;;;4858174;29;20053;-81
2023/05/28 00:59:39;;;;;;;19.40;8.33;;;;;;;;;;4838878;29;20703;-81
2023/05/28 01:05:27;;;;;;;17.70;8.02;;;;;;;;;;4834090;29;20049;-81
2023/05/28 01:08:06;;;;;;;17.60;7.63;;;;;;;;;;4828289;29;20048;-81
2023/05/28 01:10:46;;;;;;;22.00;6.97;;;;;;;;;;4839341;29;20081;-81
2023/05/28 01:13:48;;;;;;;18.65;7.82;;;;;;;;;;4859209;29;20044;-81
2023/05/28 01:16:38;;;;;;;;;;;;;;;;;;;;;
2023/05/28 01:19:42;;;;;;;14.48;8.23;;;;;;;;;;4873646;29;20161;-82
2023/05/28 01:22:27;;;;;;;12.18;7.30;;;;;;;;;;4861863;29;20206;-81
2023/05/28 01:25:12;;;;;;;21.08;8.82;;;;;;;;;;4835100;29;20072;-81
2023/05/28 01:28:05;;;;;;;18.60;8.05;;;;;;;;;;4842486;29;20139;-81
2023/05/28 01:30:52;;;;;;;21.17;9.10;;;;;;;;;;4864029;29;20576;-81
2023/05/28 01:34:00;;;;;;;20.85;7.75;;;;;;;;;;4869711;29;20104;-82
2023/05/28 01:37:07;;;;;;;20.67;8.18;;;;;;;;;;4889852;29;20135;-82
2023/05/28 01:40:01;;;;;;;26.55;8.70;;;;;;;;;;4844819;29;21494;-82
2023/05/28 01:42:39;;;;;;;19.13;8.40;;;;;;;;;;4838797;29;20049;-82
2023/05/28 01:45:14;;;;;;;19.50;8.27;;;;;;;;;;4842891;29;20053;-82
2023/05/28 01:47:58;;;;;;;18.75;8.15;;;;;;;;;;4853669;29;20395;-83
2023/05/28 01:50:32;;;;;;;17.17;7.70;;;;;;;;;;4837840;29;20504;-82
2023/05/28 01:53:12;;;;;;;17.63;8.43;;;;;;;;;;4810951;29;20058;-83
2023/05/28 01:56:17;;;;;;;;;;;;;;;;;;;;;
2023/05/28 01:59:14;;;;;;;18.42;7.97;;;;;;;;;;4807023;29;20061;-83
2023/05/28 02:02:13;;;;;;;17.85;8.20;;;;;;;;;;4804520;29;22283;-82
2023/05/28 02:05:18;;;;;;;19.23;8.18;;;;;;;;;;4768897;29;20108;-83
2023/05/28 02:14:18;;;;;;;16.30;8.48;;;;;;;;;;4824920;29;20117;-83
2023/05/28 02:17:03;;;;;;;17.48;8.27;;;;;;;;;;4838806;29;20537;-83
2023/05/28 02:20:04;;;;;;;16.15;8.43;;;;;;;;;;4823693;29;20554;-82
2023/05/28 02:23:30;;;;;;;;;;;;;;;;;;;;;
2023/05/28 02:26:35;;;;;;;16.85;8.15;;;;;;;;;;4812886;29;20053;-83
2023/05/28 02:29:31;;;;;;;;;;;;;;;;;;;;;
2023/05/28 02:32:18;;;;;;;21.95;9.38;;;;;;;;;;4802924;29;20069;-83
2023/05/28 02:35:02;;;;;;;19.80;8.80;;;;;;;;;;4802817;29;20523;-83
2023/05/28 02:37:37;;;;;;;15.07;8.02;;;;;;;;;;4802120;29;20562;-82
2023/05/28 02:40:47;;;;;;;17.80;8.25;;;;;;;;;;4797811;29;20057;-82
2023/05/28 02:43:35;;;;;;;21.08;8.70;;;;;;;;;;4819836;29;20053;-82
2023/05/28 02:47:26;;;;;;;19.27;8.60;;;;;;;;;;4755874;29;20475;-83
2023/05/28 02:50:17;;;;;;;20.38;7.75;;;;;;;;;;4736941;29;20718;-83
2023/05/28 02:53:03;;;;;;;21.08;8.60;;;;;;;;;;4827321;29;20458;-83
2023/05/28 02:55:49;;;;;;;19.73;7.78;;;;;;;;;;4835113;29;21068;-83
2023/05/28 02:58:32;;;;;;;17.85;8.40;;;;;;;;;;4789283;29;20058;-82
2023/05/28 03:01:24;;;;;;;22.85;8.13;;;;;;;;;;4787028;29;20088;-83
2023/05/28 03:04:14;;;;;;;17.20;7.50;;;;;;;;;;4785417;29;20155;-83
2023/05/28 03:06:58;;;;;;;17.58;7.43;;;;;;;;;;4766597;29;20104;-82
2023/05/28 03:09:47;;;;;;;15.70;7.00;;;;;;;;;;4788229;29;20481;-82
2023/05/28 03:13:04;;;;;;;19.92;8.38;;;;;;;;;;4760886;29;20063;-82
2023/05/28 03:15:58;;;;;;;16.08;7.78;;;;;;;;;;4714590;30;20140;-82
2023/05/28 03:18:53;;;;;;;17.23;7.30;;;;;;;;;;4705270;30;20075;-83
2023/05/28 03:21:30;;;;;;;17.63;8.43;;;;;;;;;;4700602;30;20269;-83
2023/05/28 03:23:59;;;;;;;19.73;8.65;;;;;;;;;;4712632;30;20605;-82
2023/05/28 03:26:56;;;;;;;26.35;8.77;;;;;;;;;;4718532;30;20598;-83
2023/05/28 03:29:59;;;;;;;15.70;8.02;;;;;;;;;;4730702;29;20079;-83
2023/05/28 03:32:35;;;;;;;19.83;8.23;;;;;;;;;;4783016;29;20057;-82
2023/05/28 03:38:36;;;;;;;22.42;8.85;;;;;;;;;;4777605;29;20119;-82
2023/05/28 03:41:38;;;;;;;21.30;8.23;;;;;;;;;;4785520;29;20141;-82
2023/05/28 03:53:58;;;;;;;16.20;8.70;;;;;;;;;;4762892;29;20176;-83
2023/05/28 03:56:59;;;;;;;20.35;8.52;;;;;;;;;;4838057;29;20497;-83
2023/05/28 04:03:09;;;;;;;18.75;8.70;;;;;;;;;;4831192;29;20127;-83
2023/05/28 04:16:01;;;;;;;20.10;9.05;;;;;;;;;;4853900;29;20103;-83
2023/05/28 04:18:39;;;;;;;20.92;8.98;;;;;;;;;;4841612;29;20093;-82
2023/05/28 04:21:54;;;;;;;18.77;8.55;;;;;;;;;;4825108;29;20503;-83
2023/05/28 04:24:51;;;;;;;20.77;8.05;;;;;;;;;;4773194;29;20054;-83
2023/05/28 04:27:44;;;;;;;;;;;;;;;;;;;;;
2023/05/28 04:30:22;;;;;;;17.83;8.13;;;;;;;;;;4776724;29;20147;-83
2023/05/28 04:33:32;;;;;;;16.67;7.45;;;;;;;;;;4772741;29;20065;-83
2023/05/28 04:36:29;;;;;;;19.98;8.70;;;;;;;;;;4862725;29;20056;-83
2023/05/28 04:39:15;;;;;;;19.95;8.88;;;;;;;;;;4846265;29;20051;-83
2023/05/28 04:42:13;;;;;;;;;;;;;;;;;;;;;
2023/05/28 04:45:10;;;;;;;19.20;8.05;;;;;;;;;;4881020;29;20076;-83
2023/05/28 04:48:34;;;;;;;17.95;7.88;;;;;;;;;;4849205;29;20107;-83
2023/05/28 04:51:26;;;;;;;19.10;8.38;;;;;;;;;;4849734;29;20051;-83
2023/05/28 04:57:47;;;;;;;;;;;;;;;;;;;;;
2023/05/28 05:00:43;;;;;;;19.40;8.27;;;;;;;;;;4852717;29;20056;-83
2023/05/28 05:03:37;;;;;;;20.73;8.63;;;;;;;;;;4807411;29;20051;-82
2023/05/28 05:06:22;;;;;;;18.95;7.88;;;;;;;;;;4820816;29;20042;-83
2023/05/28 05:09:38;;;;;;;18.85;8.15;;;;;;;;;;4777519;29;20073;-82
2023/05/28 05:12:13;;;;;;;17.75;8.30;;;;;;;;;;4780308;29;20157;-83
2023/05/28 05:14:42;;;;;;;18.02;8.00;;;;;;;;;;4800174;29;20578;-83
2023/05/28 05:17:20;;;;;;;;;;;;;;;;;;;;;
2023/05/28 05:20:06;;;;;;;15.90;7.78;;;;;;;;;;4827548;29;19932;-83
2023/05/28 05:22:58;;;;;;;20.08;7.25;;;;;;;;;;4789687;29;20176;-83
2023/05/28 05:25:39;;;;;;;18.67;7.90;;;;;;;;;;4808756;29;20053;-83
2023/05/28 05:31:31;;;;;;;21.13;7.80;;;;;;;;;;4821074;29;20517;-82
2023/05/28 05:34:19;;;;;;;17.98;7.43;;;;;;;;;;4820402;29;20057;-83
2023/05/28 05:37:34;;;;;;;;;;;;;;;;;;;;;
2023/05/28 05:40:46;;;;;;;19.70;7.60;;;;;;;;;;4793091;29;20064;-83
2023/05/28 05:44:04;;;;;;;20.08;8.05;;;;;;;;;;4846639;29;20074;-82
2023/05/28 05:47:15;;;;;;;15.55;7.22;;;;;;;;;;4831485;29;20045;-83
2023/05/28 05:49:51;;;;;;;14.85;7.35;;;;;;;;;;4824875;29;20085;-83
2023/05/28 05:52:53;;;;;;;;;;;;;;;;;;;;;
2023/05/28 05:55:31;;;;;;;17.25;7.28;;;;;;;;;;4859802;29;20056;-83
2023/05/28 05:58:34;;;;;;;13.85;7.53;;;;;;;;;;4834287;29;20060;-82
2023/05/28 06:01:07;;;;;;;13.05;6.72;;;;;;;;;;4855714;29;20045;-83
2023/05/28 06:03:56;;;;;;;15.88;7.57;;;;;;;;;;4853129;29;20084;-83
2023/05/28 06:06:23;;;;;;;17.02;6.80;;;;;;;;;;4855961;29;20048;-82
2023/05/28 06:09:01;;;;;;;15.77;6.70;;;;;;;;;;4844903;29;22204;-82
2023/05/28 06:11:38;;;;;;;15.48;7.10;;;;;;;;;;4839330;29;20566;-83
2023/05/28 06:14:12;;;;;;;16.53;6.73;;;;;;;;;;4861527;29;20079;-82
2023/05/28 06:16:44;;;;;;;11.45;6.03;;;;;;;;;;4885100;29;20762;-82
2023/05/28 06:19:36;;;;;;;17.17;7.32;;;;;;;;;;4856110;29;20044;-82
2023/05/28 06:22:08;;;;;;;14.32;6.90;;;;;;;;;;4875113;29;20059;-83
2023/05/28 06:25:05;;;;;;;18.05;7.30;;;;;;;;;;4845498;29;20093;-82
2023/05/28 06:27:42;;;;;;;12.73;6.82;;;;;;;;;;4871227;29;20398;-82
2023/05/28 06:30:17;;;;;;;16.70;7.20;;;;;;;;;;4859549;29;20394;-82
2023/05/28 06:32:58;;;;;;;15.13;6.88;;;;;;;;;;4852258;29;20068;-82
2023/05/28 06:35:35;;;;;;;15.02;6.75;;;;;;;;;;4860695;29;20051;-83
2023/05/28 06:38:10;;;;;;;13.60;6.33;;;;;;;;;;4847114;29;20140;-82
2023/05/28 06:40:41;;;;;;;12.15;6.00;;;;;;;;;;4854951;29;20048;-82
2023/05/28 06:43:31;;;;;;;12.90;6.05;;;;;;;;;;4876055;29;20476;-82
2023/05/28 06:46:08;;;;;;;15.32;6.43;;;;;;;;;;4873300;29;20052;-82
2023/05/28 06:48:39;;;;;;;14.52;6.22;;;;;;;;;;4880705;29;20108;-82
2023/05/28 06:51:26;;;;;;;12.27;5.78;;;;;;;;;;4886076;29;20453;-82
2023/05/28 06:54:16;;;;;;;10.85;5.53;;;;;;;;;;4861430;29;20195;-82
2023/05/28 06:57:03;;;;;;;13.07;6.05;;;;;;;;;;4860041;29;20053;-82
2023/05/28 06:59:48;;;;;;;17.42;6.40;;;;;;;;;;4867174;29;20041;-82
2023/05/28 07:02:14;;;;;;;11.88;6.45;;;;;;;;;;4854179;29;20057;-82
2023/05/28 07:04:58;;;;;;;13.20;5.38;;;;;;;;;;4852443;29;20084;-82
2023/05/28 07:07:42;;;;;;;12.77;5.78;;;;;;;;;;4844366;29;20045;-82
2023/05/28 07:10:28;;;;;;;12.35;5.28;;;;;;;;;;4849548;29;20064;-82
2023/05/28 07:13:15;;;;;;;14.15;5.75;;;;;;;;;;4858556;29;20140;-82
2023/05/28 07:15:44;;;;;;;12.48;5.45;;;;;;;;;;4859293;29;20460;-82
2023/05/28 07:18:23;;;;;;;11.05;5.50;;;;;;;;;;4859487;29;20792;-82
2023/05/28 07:21:01;;;;;;;11.07;5.38;;;;;;;;;;4867950;29;20052;-83
2023/05/28 07:23:36;;;;;;;9.13;5.03;;;;;;;;;;4857995;29;20069;-82
2023/05/28 07:26:10;;;;;;;12.70;5.50;;;;;;;;;;4855174;29;20053;-82
2023/05/28 07:28:45;;;;;;;11.55;6.53;;;;;;;;;;4843861;29;20033;-82
2023/05/28 07:31:11;;;;;;;10.30;5.53;;;;;;;;;;4845533;29;20438;-82
2023/05/28 07:33:40;;;;;;;12.27;6.15;;;;;;;;;;4867958;29;20045;-82
2023/05/28 07:36:13;;;;;;;11.95;5.82;;;;;;;;;;4843202;29;20056;-82
2023/05/28 07:38:48;;;;;;;12.18;5.47;;;;;;;;;;4839929;29;20140;-82
2023/05/28 07:41:24;;;;;;;12.75;5.93;;;;;;;;;;4860098;29;20057;-82
2023/05/28 07:43:55;;;;;;;9.82;5.68;;;;;;;;;;4853117;29;20067;-82
2023/05/28 07:46:25;;;;;;;7.90;5.68;;;;;;;;;;4875047;29;20135;-82
2023/05/28 07:49:21;;;;;;;8.05;5.75;;;;;;;;;;4869292;29;20117;-82
2023/05/28 07:54:39;;;;;;;8.55;5.90;;;;;;;;;;4876797;29;20074;-82
2023/05/28 07:57:08;;;;;;;12.20;6.10;;;;;;;;;;4877949;29;20043;-82
2023/05/28 08:03:26;;;;;;;;;;;;;;;;;;;;;
2023/05/28 08:05:55;;;;;;;9.32;6.53;;;;;;;;;;4865701;29;20127;-82
2023/05/28 08:08:56;;;;;;;8.20;6.13;;;;;;;;;;4858572;29;20049;-82
2023/05/28 08:11:30;;;;;;;12.10;6.40;;;;;;;;;;4824828;29;20448;-82
2023/05/28 08:14:35;;;;;;;10.75;6.47;;;;;;;;;;4794173;29;20057;-82
2023/05/28 08:21:23;;;;;;;;;;;;;;;;;;;;;
2023/05/28 08:34:06;;;;;;;11.07;6.20;;;;;;;;;;4717337;29;20139;-86
2023/05/28 08:37:21;;;;;;;;;;;;;;;;;;;;;
2023/05/28 08:49:44;;;;;;;11.02;5.70;;;;;;;;;;4834937;29;20057;-85
2023/05/28 08:52:42;;;;;;;10.05;5.50;;;;;;;;;;4812131;29;20066;-85
2023/05/28 08:56:12;;;;;;;;;;;;;;;;;;;;;
2023/05/28 09:06:35;;;;;;;9.38;5.40;;;;;;;;;;4683836;30;20081;-86
2023/05/28 09:09:20;;;;;;;9.45;5.28;;;;;;;;;;4707106;30;20072;-86
2023/05/28 09:15:54;;;;;;;12.02;5.00;;;;;;;;;;4686746;30;20059;-86
2023/05/28 09:18:42;;;;;;;8.07;5.22;;;;;;;;;;4749537;29;20059;-86
2023/05/28 09:24:56;;;;;;;8.48;4.65;;;;;;;;;;4756112;29;20229;-86
2023/05/28 09:27:42;;;;;;;;;;;;;;;;;;;;;
2023/05/28 09:30:53;;;;;;;;;;;;;;;;;;;;;
2023/05/28 09:34:03;;;;;;;;;;;;;;;;;;;;;
2023/05/28 09:36:43;;;;;;;8.32;5.30;;;;;;;;;;4887809;29;20578;-86
2023/05/28 09:39:12;;;;;;;10.18;5.35;;;;;;;;;;4858864;29;20048;-86
2023/05/28 09:42:45;;;;;;;;;;;;;;;;;;;;;
2023/05/28 09:45:58;;;;;;;8.63;4.97;;;;;;;;;;4826251;29;20140;-86
2023/05/28 09:52:18;;;;;;;10.95;5.55;;;;;;;;;;4854552;29;21000;-86
2023/05/28 09:55:30;;;;;;;;;;;;;;;;;;;;;
2023/05/28 09:58:27;;;;;;;7.55;5.00;;;;;;;;;;4853116;29;20121;-85
2023/05/28 10:01:33;;;;;;;10.10;5.47;;;;;;;;;;4883642;29;20048;-86
2023/05/28 10:08:36;;;;;;;;;;;;;;;;;;;;;
2023/05/28 10:24:39;;;;;;;7.30;5.05;;;;;;;;;;4777838;29;20602;-86
2023/05/28 10:31:10;;;;;;;;;;;;;;;;;;;;;
2023/05/28 10:38:02;;;;;;;8.88;4.90;;;;;;;;;;4773517;29;20055;-86
2023/05/28 10:40:35;;;;;;;7.30;4.63;;;;;;;;;;4756969;29;20693;-85
2023/05/28 10:43:40;;;;;;;7.75;4.72;;;;;;;;;;4825921;29;20100;-85
2023/05/28 10:59:57;;;;;;;8.77;4.50;;;;;;;;;;4807848;29;20153;-86
2023/05/28 11:05:45;;;;;;;7.82;5.10;;;;;;;;;;5033049;23;20063;-84
2023/05/28 11:08:11;;;;;;;8.18;4.45;;;;;;;;;;4914633;29;20059;-84
2023/05/28 11:10:37;;;;;;;8.30;4.75;;;;;;;;;;4910676;29;20086;-85
2023/05/28 11:13:03;;;;;;;7.25;4.95;;;;;;;;;;4916950;28;20051;-84
2023/05/28 11:15:34;;;;;;;9.68;4.95;;;;;;;;;;4895803;29;20059;-85
2023/05/28 11:18:00;;;;;;;5.57;4.38;;;;;;;;;;4885707;29;20524;-84
2023/05/28 11:20:27;;;;;;;6.95;4.72;;;;;;;;;;4928919;28;20628;-85
2023/05/28 11:22:56;;;;;;;8.98;4.30;;;;;;;;;;4881331;28;21050;-85
2023/05/28 11:25:25;;;;;;;4.85;4.18;;;;;;;;;;4897214;29;20059;-89
2023/05/28 11:27:52;;;;;;;5.60;4.13;;;;;;;;;;4875803;29;20040;-85
2023/05/28 11:30:18;;;;;;;5.00;4.28;;;;;;;;;;4883751;29;20088;-85
2023/05/28 11:32:45;;;;;;;6.22;4.60;;;;;;;;;;4872396;29;20075;-85
2023/05/28 11:35:12;;;;;;;5.28;4.05;;;;;;;;;;4877082;29;20445;-85
2023/05/28 11:37:38;;;;;;;7.33;4.83;;;;;;;;;;4876875;29;20051;-85
2023/05/28 11:40:05;;;;;;;6.50;4.05;;;;;;;;;;4879646;29;20059;-85
2023/05/28 11:42:31;;;;;;;6.68;5.20;;;;;;;;;;4862507;29;20048;-85
2023/05/28 11:44:58;;;;;;;6.68;4.70;;;;;;;;;;4881741;29;20051;-84
2023/05/28 11:47:26;;;;;;;6.85;5.10;;;;;;;;;;4897951;29;20509;-84
2023/05/28 11:49:54;;;;;;;6.13;5.10;;;;;;;;;;4876079;29;20059;-85
2023/05/28 11:52:27;;;;;;;5.90;5.38;;;;;;;;;;4888173;29;20036;-85
2023/05/28 11:54:54;;;;;;;6.88;5.60;;;;;;;;;;4878125;29;20102;-85
2023/05/28 11:57:33;;;;;;;5.82;5.20;;;;;;;;;;4897026;29;20405;-84
2023/05/28 12:07:26;;;;;;;6.30;4.22;;;;;;;;;;4753280;29;20059;-85
2023/05/28 12:10:12;;;;;;;5.15;4.38;;;;;;;;;;4777403;29;20504;-85
2023/05/28 12:12:48;;;;;;;5.47;3.83;;;;;;;;;;4770503;29;20171;-85
2023/05/28 12:15:53;;;;;;;6.72;4.03;;;;;;;;;;4765781;29;20085;-85
2023/05/28 12:19:23;;;;;;;;;;;;;;;;;;;;;
2023/05/28 12:22:51;;;;;;;6.75;4.60;;;;;;;;;;4745644;30;20499;-85
2023/05/28 12:28:54;;;;;;;7.00;3.78;;;;;;;;;;4746490;30;20689;-85
2023/05/28 12:31:27;;;;;;;5.28;3.63;;;;;;;;;;4758103;29;20143;-83
2023/05/28 12:33:54;;;;;;;5.07;3.85;;;;;;;;;;4808107;29;20135;-85
2023/05/28 12:36:20;;;;;;;5.63;3.90;;;;;;;;;;4860232;29;20056;-85
2023/05/28 12:46:06;;;;;;;6.05;3.15;;;;;;;;;;4824504;29;20053;-84
2023/05/28 12:54:47;;;;;;;5.53;3.05;;;;;;;;;;4958338;23;20060;-80
2023/05/28 12:57:16;;;;;;;3.85;2.63;;;;;;;;;;4868905;29;20111;-80
2023/05/28 12:59:42;;;;;;;5.13;2.60;;;;;;;;;;4878845;29;20040;-80
2023/05/28 13:02:08;;;;;;;6.05;3.03;;;;;;;;;;4876267;29;20071;-80
2023/05/28 13:04:34;;;;;;;4.25;2.58;;;;;;;;;;4893968;29;20035;-80
2023/05/28 13:07:01;;;;;;;3.95;2.65;;;;;;;;;;4874901;29;20040;-80
2023/05/28 13:09:27;;;;;;;6.35;2.70;;;;;;;;;;4893042;29;20032;-80
2023/05/28 13:11:53;;;;;;;7.43;3.10;;;;;;;;;;4870164;29;20604;-80
2023/05/28 13:14:19;;;;;;;9.52;3.45;;;;;;;;;;4890989;29;20055;-80
2023/05/28 13:16:45;;;;;;;8.50;3.15;;;;;;;;;;4866154;29;20047;-79
2023/05/28 13:19:17;;;;;;;7.38;3.00;;;;;;;;;;4872057;29;20611;-80
2023/05/28 13:21:43;;;;;;;8.48;3.70;;;;;;;;;;4871533;29;20560;-80
2023/05/28 13:24:11;;;;;;;7.25;3.10;;;;;;;;;;4869454;29;20039;-80
2023/05/28 13:26:40;;;;;;;7.93;3.40;;;;;;;;;;4866728;29;20039;-80
2023/05/28 13:29:06;;;;;;;7.78;3.15;;;;;;;;;;4872910;29;20488;-80
2023/05/28 13:31:32;;;;;;;6.70;3.35;;;;;;;;;;4880498;29;20044;-80
2023/05/28 13:33:58;;;;;;;7.07;3.20;;;;;;;;;;4890471;29;20396;-79
2023/05/28 13:36:27;;;;;;;8.32;3.08;;;;;;;;;;4872068;29;20691;-79
2023/05/28 13:38:55;;;;;;;7.07;3.00;;;;;;;;;;4881502;29;20180;-80
2023/05/28 13:41:22;;;;;;;9.43;3.53;;;;;;;;;;4883348;29;20064;-80
2023/05/28 13:43:54;;;;;;;8.53;3.07;;;;;;;;;;4867544;29;20047;-79
2023/05/28 13:46:21;;;;;;;8.93;3.13;;;;;;;;;;4868059;29;20119;-80
2023/05/28 13:48:47;;;;;;;6.60;2.97;;;;;;;;;;4898837;29;20043;-82
2023/05/28 13:51:13;;;;;;;12.80;3.58;;;;;;;;;;4865452;29;20414;-82
2023/05/28 13:53:39;;;;;;;8.20;3.25;;;;;;;;;;4863447;29;20080;-82
2023/05/28 13:56:05;;;;;;;6.53;3.22;;;;;;;;;;4881318;29;20073;-82
2023/05/28 13:58:32;;;;;;;7.22;2.90;;;;;;;;;;4862824;29;20048;-82
2023/05/28 14:00:58;;;;;;;8.60;3.10;;;;;;;;;;4859068;29;20033;-82
2023/05/28 14:03:24;;;;;;;9.65;3.50;;;;;;;;;;4868952;29;20498;-82
2023/05/28 14:05:50;;;;;;;7.72;3.15;;;;;;;;;;4882311;29;20047;-82
2023/05/28 14:08:16;;;;;;;6.95;3.30;;;;;;;;;;4866494;29;20059;-82
2023/05/28 14:10:45;;;;;;;8.43;3.08;;;;;;;;;;4871681;29;20151;-82
2023/05/28 14:13:31;;;;;;;8.52;3.30;;;;;;;;;;4861120;29;20437;-86
2023/05/28 14:19:37;;;;;;;12.80;3.67;;;;;;;;;;4844302;29;20052;-85
2023/05/28 14:25:45;;;;;;;6.60;3.20;;;;;;;;;;4866850;29;20059;-86
2023/05/28 14:28:36;;;;;;;6.30;3.33;;;;;;;;;;4868978;29;20091;-86
2023/05/28 14:31:40;;;;;;;10.57;3.30;;;;;;;;;;4873076;29;20096;-86
2023/05/28 14:34:23;;;;;;;9.38;2.97;;;;;;;;;;4860751;29;20413;-86
2023/05/28 14:37:37;;;;;;;10.48;3.42;;;;;;;;;;4877349;29;20048;-85
2023/05/28 14:43:06;;;;;;;7.60;3.58;;;;;;;;;;4862675;29;20052;-85
2023/05/28 14:48:53;;;;;;;10.85;3.63;;;;;;;;;;4824423;29;20049;-85
2023/05/28 14:51:25;;;;;;;8.68;3.15;;;;;;;;;;4872163;29;20049;-86
2023/05/28 14:53:56;;;;;;;6.55;2.70;;;;;;;;;;4864655;29;21104;-86
2023/05/28 14:56:41;;;;;;;7.03;2.88;;;;;;;;;;4881806;29;20044;-85
2023/05/28 15:02:40;;;;;;;5.93;3.13;;;;;;;;;;4846511;29;20058;-86
2023/05/28 15:08:43;;;;;;;9.38;3.35;;;;;;;;;;4876702;29;20058;-86
2023/05/28 15:11:50;;;;;;;7.55;3.17;;;;;;;;;;4882513;29;20508;-86
2023/05/28 15:14:52;;;;;;;7.70;3.00;;;;;;;;;;4858216;29;20100;-86
2023/05/28 15:17:35;;;;;;;7.07;2.90;;;;;;;;;;4858189;29;20056;-86
2023/05/28 15:20:32;;;;;;;5.60;3.00;;;;;;;;;;4836090;29;20227;-86
2023/05/28 15:23:01;;;;;;;8.38;3.20;;;;;;;;;;4892756;29;20082;-86
2023/05/28 15:25:33;;;;;;;8.25;3.30;;;;;;;;;;4845792;29;20052;-86
2023/05/28 15:28:21;;;;;;;8.75;3.55;;;;;;;;;;4844716;29;20052;-86
2023/05/28 15:31:01;;;;;;;9.43;3.13;;;;;;;;;;4842366;29;20067;-86
2023/05/28 15:33:41;;;;;;;7.38;3.70;;;;;;;;;;4806578;29;20105;-85
2023/05/28 15:36:08;;;;;;;7.22;2.88;;;;;;;;;;4797186;29;20046;-85
2023/05/28 15:39:05;;;;;;;8.32;3.13;;;;;;;;;;4788252;29;20102;-90
2023/05/28 15:41:58;;;;;;;9.98;3.40;;;;;;;;;;4800248;29;20109;-86
2023/05/28 15:44:27;;;;;;;8.23;3.33;;;;;;;;;;4781975;29;20046;-85
2023/05/28 15:47:29;;;;;;;8.32;3.17;;;;;;;;;;4800916;29;20522;-85
2023/05/28 15:49:58;;;;;;;7.85;3.38;;;;;;;;;;4796384;29;20129;-86
2023/05/28 15:53:05;;;;;;;7.35;3.30;;;;;;;;;;4806120;29;20081;-85
2023/05/28 15:55:35;;;;;;;7.63;3.28;;;;;;;;;;4817419;29;20186;-85
2023/05/28 15:58:13;;;;;;;9.77;3.63;;;;;;;;;;4795420;29;20141;-85
2023/05/28 16:00:59;;;;;;;8.55;3.53;;;;;;;;;;4792003;29;20514;-86
2023/05/28 16:03:41;;;;;;;7.30;3.35;;;;;;;;;;4791422;29;20058;-85
2023/05/28 16:06:15;;;;;;;8.35;2.95;;;;;;;;;;4828051;29;20045;-85
2023/05/28 16:09:11;;;;;;;8.80;3.60;;;;;;;;;;4819668;29;20493;-85
2023/05/28 16:11:53;;;;;;;8.18;3.05;;;;;;;;;;4820497;29;20162;-85
2023/05/28 16:14:33;;;;;;;6.38;3.30;;;;;;;;;;4825430;29;20112;-85
2023/05/28 16:17:06;;;;;;;6.78;3.03;;;;;;;;;;4819640;29;20080;-85
2023/05/28 16:19:41;;;;;;;8.30;3.25;;;;;;;;;;4819616;29;20053;-87
2023/05/28 16:22:21;;;;;;;5.95;2.45;;;;;;;;;;4845685;29;20061;-85
2023/05/28 16:24:55;;;;;;;7.93;3.25;;;;;;;;;;4824558;29;20064;-85
2023/05/28 16:27:29;;;;;;;6.53;3.30;;;;;;;;;;4821346;29;20045;-85
2023/05/28 16:29:58;;;;;;;6.82;3.72;;;;;;;;;;4821999;29;20450;-85
2023/05/28 16:32:40;;;;;;;7.72;3.65;;;;;;;;;;4838924;29;20608;-85
2023/05/28 16:35:07;;;;;;;9.70;3.75;;;;;;;;;;4872071;29;20131;-84
2023/05/28 16:37:33;;;;;;;8.68;4.05;;;;;;;;;;4864003;29;20126;-84
2023/05/28 16:40:06;;;;;;;7.25;3.78;;;;;;;;;;4879656;29;20051;-84
2023/05/28 16:42:45;;;;;;;7.40;3.70;;;;;;;;;;4862003;29;20052;-85
2023/05/28 16:45:11;;;;;;;8.07;4.47;;;;;;;;;;4868115;29;20183;-84
2023/05/28 16:47:45;;;;;;;11.40;4.32;;;;;;;;;;4869531;29;20047;-87
2023/05/28 16:50:17;;;;;;;8.88;4.47;;;;;;;;;;4882411;29;20040;-85
2023/05/28 16:52:43;;;;;;;9.70;5.13;;;;;;;;;;4868306;29;20083;-85
2023/05/28 16:55:40;;;;;;;9.10;4.93;;;;;;;;;;4882561;29;20060;-85
2023/05/28 16:58:07;;;;;;;8.27;4.25;;;;;;;;;;4871676;29;20040;-85
2023/05/28 17:00:37;;;;;;;9.50;4.82;;;;;;;;;;4861633;29;20044;-84
2023/05/28 17:03:03;;;;;;;9.82;5.10;;;;;;;;;;4867073;29;20158;-82
2023/05/28 17:05:32;;;;;;;10.00;5.43;;;;;;;;;;4860635;29;20089;-82
2023/05/28 17:07:58;;;;;;;10.18;5.07;;;;;;;;;;4868924;29;20047;-82
2023/05/28 17:10:24;;;;;;;13.73;4.90;;;;;;;;;;4887942;29;20040;-82
2023/05/28 17:12:50;;;;;;;10.27;5.43;;;;;;;;;;4863292;29;20108;-82
2023/05/28 17:15:17;;;;;;;10.60;5.07;;;;;;;;;;4857262;29;21756;-82
2023/05/28 17:17:43;;;;;;;7.88;4.90;;;;;;;;;;4859870;29;20124;-81
2023/05/28 17:20:09;;;;;;;8.82;4.97;;;;;;;;;;4852281;29;20127;-82
2023/05/28 17:22:42;;;;;;;8.48;4.72;;;;;;;;;;4850094;29;20052;-82
2023/05/28 17:25:09;;;;;;;8.77;5.07;;;;;;;;;;4882497;29;20044;-81
2023/05/28 17:27:35;;;;;;;12.27;4.78;;;;;;;;;;4858501;29;20125;-82
2023/05/28 17:30:01;;;;;;;8.43;4.82;;;;;;;;;;4883762;29;20052;-82
2023/05/28 17:32:35;;;;;;;11.18;5.68;;;;;;;;;;4861799;29;21139;-81
2023/05/28 17:35:04;;;;;;;12.60;5.50;;;;;;;;;;4865869;29;20171;-83
2023/05/28 17:37:39;;;;;;;10.55;5.05;;;;;;;;;;4859313;29;20055;-82
2023/05/28 17:47:11;;;;;;;10.65;4.85;;;;;;;;;;4768317;29;20043;-83
2023/05/28 17:50:02;;;;;;;12.93;5.10;;;;;;;;;;4790424;29;20614;-81
2023/05/28 17:53:07;;;;;;;12.32;5.53;;;;;;;;;;4804968;29;20733;-83
2023/05/28 17:56:23;;;;;;;;;;;;;;;;;;;;;
2023/05/28 18:17:43;;;;;;;;;;;;;;;;;;;;;
2023/05/28 18:40:54;;;;;;;8.63;4.40;;;;;;;;;;4719137;30;20043;-83
2023/05/28 18:46:31;;;;;;;8.93;4.43;;;;;;;;;;4799949;29;20080;-83
2023/05/28 18:58:30;;;;;;;12.55;4.90;;;;;;;;;;4942317;23;20057;-82
2023/05/28 19:01:29;;;;;;;;;;;;;;;;;;;;;
2023/05/28 19:04:13;;;;;;;6.05;3.80;;;;;;;;;;4915195;28;20565;-82
2023/05/28 19:07:25;;;;;;;12.00;5.07;;;;;;;;;;4885947;29;20075;-82
2023/05/28 19:10:26;;;;;;;9.02;4.15;;;;;;;;;;4894897;28;20039;-83
2023/05/28 19:13:22;;;;;;;9.40;3.63;;;;;;;;;;4887314;28;20051;-82
2023/05/28 19:16:21;;;;;;;8.35;3.65;;;;;;;;;;4874872;29;20050;-82
2023/05/28 19:19:25;;;;;;;11.13;3.85;;;;;;;;;;4827843;29;20053;-82
2023/05/28 19:22:13;;;;;;;9.38;3.55;;;;;;;;;;4808639;29;20053;-82
2023/05/28 19:24:55;;;;;;;;;;;;;;;;;;;;;
2023/05/28 19:28:22;;;;;;;9.52;2.72;;;;;;;;;;4762795;29;19960;-83
2023/05/28 19:31:22;;;;;;;11.60;3.78;;;;;;;;;;4755189;29;20088;-82
2023/05/28 19:34:32;;;;;;;14.07;3.80;;;;;;;;;;4745787;29;20062;-82
2023/05/28 19:41:05;;;;;;;9.65;3.05;;;;;;;;;;4750850;30;20065;-82
2023/05/28 19:44:03;;;;;;;11.45;3.40;;;;;;;;;;4861586;29;20060;-83
2023/05/28 19:47:17;;;;;;;8.73;3.13;;;;;;;;;;4822328;29;20068;-82
2023/05/28 19:49:57;;;;;;;13.90;3.03;;;;;;;;;;4827705;29;20606;-81
2023/05/28 19:52:23;;;;;;;15.73;3.67;;;;;;;;;;4857839;29;20626;-81
2023/05/28 19:54:49;;;;;;;9.50;3.15;;;;;;;;;;4834980;29;22547;-80
2023/05/28 19:57:18;;;;;;;11.90;3.75;;;;;;;;;;4894130;29;20060;-81
2023/05/28 19:59:44;;;;;;;15.80;3.45;;;;;;;;;;4896444;29;20052;-80
2023/05/28 20:02:32;;;;;;;12.35;3.70;;;;;;;;;;4896167;29;20048;-81
2023/05/28 20:05:07;;;;;;;13.50;3.38;;;;;;;;;;4894313;29;20106;-81
2023/05/28 20:07:48;;;;;;;14.63;4.03;;;;;;;;;;4903554;29;20048;-81
2023/05/28 20:10:25;;;;;;;16.33;3.83;;;;;;;;;;4881167;29;20043;-81
2023/05/28 20:13:08;;;;;;;15.05;4.22;;;;;;;;;;4900004;29;20039;-81
2023/05/28 20:15:37;;;;;;;13.73;3.65;;;;;;;;;;4873724;29;20052;-81
2023/05/28 20:18:43;;;;;;;14.68;3.70;;;;;;;;;;4910565;29;20122;-81
2023/05/28 20:21:14;;;;;;;;;;;;;;;;;;4895161;29;20067;-81
2023/05/28 20:26:51;;;;;;;14.32;3.13;;;;;;;;;;4903953;29;20051;-81
2023/05/28 20:29:48;;;;;;;13.40;3.67;;;;;;;;;;4898459;29;20051;-82
2023/05/28 20:32:20;;;;;;;13.65;4.18;;;;;;;;;;4918591;29;20058;-81
2023/05/28 20:35:16;;;;;;;11.55;4.05;;;;;;;;;;4910046;29;20233;-82
2023/05/28 20:38:25;;;;;;;16.48;3.55;;;;;;;;;;4897871;29;20146;-81
2023/05/28 20:41:03;;;;;;;18.75;4.20;;;;;;;;;;4912947;29;20497;-81
2023/05/28 20:43:48;;;;;;;18.40;3.92;;;;;;;;;;4878856;29;20087;-81
2023/05/28 20:46:38;;;;;;;14.35;3.63;;;;;;;;;;4873043;29;20135;-81
2023/05/28 20:55:17;;;;;;;15.90;3.63;;;;;;;;;;4886157;29;20433;-81
2023/05/28 21:00:58;;;;;;;20.30;3.85;;;;;;;;;;4866600;29;20284;-81
2023/05/28 21:03:40;;;;;;;17.05;4.07;;;;;;;;;;4833387;29;20120;-80
2023/05/28 21:06:07;;;;;;;16.85;3.53;;;;;;;;;;4844860;29;20124;-80
2023/05/28 21:08:42;;;;;;;17.73;3.80;;;;;;;;;;4829257;29;20213;-80
2023/05/28 21:11:19;;;;;;;13.77;3.28;;;;;;;;;;4852116;29;20044;-81
2023/05/28 21:13:52;;;;;;;9.82;3.22;;;;;;;;;;4873336;29;20087;-80